»·PEaware :: N350KT KBOI-KHLN

N350KT :: KBOI-KHLN

FLIGHT INFORMATION

Flight Status: Arrived
Operator: Privately registered:
United States
More flights under this callsign
Pilot: Aundrey S. (17120)
Aircraft: ECLIPSE 500
(EA50)
More flights by this aircraft type
Origin: KBOI Boise Air Terminal/Gowen
United States
Destination: KHLN Helena Regl
United States
More flights between these airports :: More routes between these airports
Route: +BOI3 LKT V113 HLN
File this flight plan on PilotEdge
Remarks:
Altitude:
(Current/Filed)
27,000ft
Speed:
(Current/Filed)
400kts
Departed: 01-Jul-18 08:49 PM
Arrived: 01-Jul-18 09:58 PM
Distance/Time
Traveled:
256nm/1:09
Distance/Time
To Go:
Arrived

Flight Plot

Page will automatically refresh every two minutes.

Flight plan parsing failed; only flown route is shown


Map Options




Map Legend


Flown Route
Filed Route
Departure Airport
Arrival Airport
Navaid (VOR, NDB)
Fix

Horizontal Profiles

Position Reports

Time Latitude Longitude Heading Altitude Ground
Speed
01-Jul-18 20:33 43.563879 -116.230133 28 2835ft 0kts
01-Jul-18 20:34 43.563879 -116.230133 28 2835ft 0kts
01-Jul-18 20:35 43.563879 -116.230133 28 2835ft 0kts
01-Jul-18 20:36 43.563879 -116.230133 28 2835ft 0kts
01-Jul-18 20:37 43.563879 -116.230133 28 2835ft 0kts
01-Jul-18 20:38 43.563879 -116.230133 28 2835ft 0kts
01-Jul-18 20:39 43.563879 -116.230133 28 2835ft 0kts
01-Jul-18 20:40 43.563879 -116.230133 28 2835ft 0kts
01-Jul-18 20:41 43.563879 -116.230133 28 2835ft 0kts
01-Jul-18 20:42 43.564316 -116.229749 81 2837ft 7kts
01-Jul-18 20:43 43.562874 -116.225380 114 2842ft 17kts
01-Jul-18 20:44 43.560840 -116.219397 116 2847ft 14kts
01-Jul-18 20:45 43.558474 -116.212497 115 2853ft 18kts
01-Jul-18 20:46 43.557822 -116.209752 47 2854ft 0kts
01-Jul-18 20:47 43.557822 -116.209752 47 2854ft 0kts
01-Jul-18 20:48 43.559060 -116.210309 295 2855ft 12kts
01-Jul-18 20:49 43.567803 -116.244546 294 3704ft 142kts
01-Jul-18 20:50 43.584507 -116.294823 297 6246ft 152kts
01-Jul-18 20:51 43.602350 -116.348678 295 8745ft 159kts
01-Jul-18 20:52 43.619736 -116.404049 295 11318ft 148kts
01-Jul-18 20:53 43.648468 -116.435414 23 13475ft 182kts
01-Jul-18 20:54 43.679666 -116.375718 42 15445ft 197kts
01-Jul-18 20:55 43.719695 -116.310896 44 15973ft 240kts
01-Jul-18 20:56 43.755313 -116.251912 40 17070ft 167kts
01-Jul-18 20:57 43.789822 -116.195407 41 17634ft 195kts
01-Jul-18 20:58 43.825729 -116.136149 42 18636ft 210kts
01-Jul-18 20:59 43.863617 -116.073358 42 19631ft 215kts
01-Jul-18 21:00 43.902272 -116.009132 42 20630ft 219kts
01-Jul-18 21:01 43.941819 -115.943273 42 21632ft 225kts
01-Jul-18 21:02 43.982049 -115.876113 43 22640ft 230kts
01-Jul-18 21:03 44.023168 -115.807298 43 23648ft 233kts
01-Jul-18 21:04 44.064898 -115.737282 43 24672ft 238kts
01-Jul-18 21:05 44.106847 -115.666708 43 25681ft 242kts
01-Jul-18 21:06 44.149992 -115.593995 43 26703ft 247kts
01-Jul-18 21:07 44.195391 -115.517413 44 27247ft 279kts
01-Jul-18 21:08 44.249633 -115.425527 45 27247ft 332kts
01-Jul-18 21:09 44.310800 -115.321429 46 27236ft 369kts
01-Jul-18 21:10 44.377327 -115.207726 46 27234ft 383kts
01-Jul-18 21:11 44.444543 -115.092450 46 27241ft 383kts
01-Jul-18 21:12 44.511681 -114.976893 46 27237ft 383kts
01-Jul-18 21:13 44.578867 -114.860787 46 27238ft 383kts
01-Jul-18 21:14 44.645860 -114.744555 46 27106ft 385kts
01-Jul-18 21:15 44.713024 -114.627521 46 27105ft 385kts
01-Jul-18 21:16 44.779995 -114.510368 46 27106ft 385kts
01-Jul-18 21:17 44.846678 -114.393236 46 27054ft 384kts
01-Jul-18 21:18 44.912560 -114.277049 47 27044ft 385kts
01-Jul-18 21:19 44.979156 -114.159099 47 27045ft 385kts
01-Jul-18 21:20 45.049994 -114.047307 33 27046ft 382kts
01-Jul-18 21:21 45.127140 -113.947423 32 27053ft 382kts
01-Jul-18 21:22 45.205409 -113.845784 33 27052ft 382kts
01-Jul-18 21:23 45.283664 -113.743767 32 27052ft 382kts
01-Jul-18 21:24 45.361700 -113.641645 33 27052ft 382kts
01-Jul-18 21:25 45.439321 -113.539638 32 26344ft 377kts
01-Jul-18 21:26 45.515465 -113.439186 32 25393ft 371kts
01-Jul-18 21:27 45.588427 -113.342529 33 24449ft 365kts
01-Jul-18 21:28 45.662222 -113.244456 33 23403ft 358kts
01-Jul-18 21:29 45.734456 -113.148141 33 22380ft 352kts
01-Jul-18 21:30 45.805192 -113.053478 33 21313ft 347kts
01-Jul-18 21:31 45.874409 -112.960499 34 19894ft 338kts
01-Jul-18 21:32 45.944052 -112.878214 7 18479ft 304kts
01-Jul-18 21:33 46.008405 -112.789202 39 17058ft 326kts
01-Jul-18 21:34 46.070641 -112.697358 37 15665ft 316kts
01-Jul-18 21:35 46.132177 -112.611525 36 15071ft 313kts
01-Jul-18 21:36 46.195030 -112.525783 42 15067ft 302kts
01-Jul-18 21:37 46.252623 -112.445186 36 14992ft 308kts
01-Jul-18 21:38 46.315230 -112.359235 36 14989ft 313kts
01-Jul-18 21:39 46.377297 -112.274158 40 14984ft 306kts
01-Jul-18 21:40 46.434899 -112.194251 44 14987ft 299kts
01-Jul-18 21:41 46.491367 -112.096730 46 14981ft 316kts
01-Jul-18 21:42 46.485534 -111.971633 105 14987ft 329kts
01-Jul-18 21:43 46.463321 -111.843088 105 14985ft 328kts
01-Jul-18 21:44 46.445998 -111.716241 102 14982ft 306kts
01-Jul-18 21:45 46.429251 -111.588441 101 13424ft 311kts
01-Jul-18 21:46 46.421438 -111.472785 74 11671ft 284kts
01-Jul-18 21:47 46.477951 -111.450510 333 9848ft 240kts
01-Jul-18 21:48 46.530404 -111.497304 283 8975ft 190kts
01-Jul-18 21:49 46.540965 -111.568501 282 8976ft 164kts
01-Jul-18 21:50 46.550768 -111.630633 282 8341ft 147kts
01-Jul-18 21:51 46.559212 -111.683667 282 7640ft 134kts
01-Jul-18 21:52 46.567426 -111.735670 282 6946ft 130kts
01-Jul-18 21:53 46.574824 -111.782964 282 6313ft 119kts
01-Jul-18 21:55 46.582128 -111.829697 282 5687ft 117kts
01-Jul-18 21:56 46.589256 -111.875248 282 5073ft 113kts
01-Jul-18 21:57 46.596321 -111.919719 283 4476ft 113kts
01-Jul-18 21:58 46.603217 -111.964139 282 3866ft 108kts
01-Jul-18 21:59 46.605967 -111.984655 200 3849ft 1kts
01-Jul-18 22:00 46.604976 -111.984639 138 3855ft 9kts
01-Jul-18 22:01 46.603526 -111.983930 267 3858ft 9kts

Navigation Log

Ident Type
Flight plan parsing failed, navigation log unavailable